Time;durP1;ratioP1;P1;durP2;ratioP2;P2;SDS_P1;SDS_P2;PMS_P1;PMS_P2;Temp;Humidity;BMP_temperature;BMP_pressure;BME280_temperature;BME280_humidity;BME280_pressure;Samples;Min_cycle;Max_cycle;Signal;HPM_P1;HPM_P2
2021/07/22 00:00:22;;;;;;;3.13;2.33;;;24.20;57.70;;;;;;6243424;28;20038;-70
2021/07/22 00:03:23;;;;;;;2.75;2.28;;;24.20;57.60;;;;;;6243148;28;20048;-69
2021/07/22 00:06:23;;;;;;;2.60;2.20;;;24.20;57.60;;;;;;6243605;28;20034;-69
2021/07/22 00:09:24;;;;;;;2.65;2.33;;;24.20;57.60;;;;;;6243139;28;20436;-69
2021/07/22 00:12:24;;;;;;;2.40;2.20;;;24.20;57.60;;;;;;6258225;28;20079;-69
2021/07/22 00:15:25;;;;;;;2.40;2.13;;;24.20;57.60;;;;;;6219944;28;20240;-69
2021/07/22 00:18:25;;;;;;;2.50;2.17;;;24.20;57.70;;;;;;6224047;28;20136;-69
2021/07/22 00:21:26;;;;;;;2.20;1.92;;;24.20;57.70;;;;;;6218644;28;20044;-69
2021/07/22 00:24:27;;;;;;;2.38;2.00;;;24.20;57.70;;;;;;6239324;28;20151;-69
2021/07/22 00:27:27;;;;;;;2.80;2.00;;;24.20;57.70;;;;;;6242622;28;20022;-69
2021/07/22 00:30:28;;;;;;;2.95;2.38;;;24.20;57.70;;;;;;6242418;28;20076;-69
2021/07/22 00:33:28;;;;;;;2.50;2.10;;;24.20;57.70;;;;;;6242464;28;20508;-69
2021/07/22 00:36:29;;;;;;;2.22;2.03;;;24.20;57.70;;;;;;6243386;28;20112;-69
2021/07/22 00:39:29;;;;;;;2.70;2.38;;;24.20;57.70;;;;;;6242072;28;20034;-69
2021/07/22 00:43:00;;;;;;;2.15;1.95;;;24.20;57.70;;;;;;6242016;28;20029;-69
2021/07/22 00:46:01;;;;;;;2.40;2.13;;;24.20;57.70;;;;;;6243048;28;20025;-69
2021/07/22 00:49:01;;;;;;;2.40;2.05;;;24.20;57.70;;;;;;6242255;28;20407;-69
2021/07/22 00:52:02;;;;;;;2.60;2.08;;;24.20;57.80;;;;;;6242330;28;20025;-69
2021/07/22 00:55:02;;;;;;;2.30;2.08;;;24.20;57.80;;;;;;6241390;28;20029;-69
2021/07/22 00:58:03;;;;;;;2.28;2.00;;;24.20;57.80;;;;;;6241725;28;20025;-69
2021/07/22 01:01:04;;;;;;;2.35;2.15;;;24.20;57.80;;;;;;6241694;28;20438;-69
2021/07/22 01:04:04;;;;;;;2.47;1.88;;;24.20;57.80;;;;;;6230201;28;20022;-69
2021/07/22 01:07:05;;;;;;;2.00;1.80;;;24.20;57.80;;;;;;6217531;28;20101;-69
2021/07/22 01:10:06;;;;;;;3.30;2.47;;;24.20;57.80;;;;;;6234848;28;20550;-69
2021/07/22 01:13:07;;;;;;;2.45;2.05;;;24.20;57.80;;;;;;6238169;28;20022;-69
2021/07/22 01:16:07;;;;;;;2.45;2.10;;;24.20;57.80;;;;;;6242048;28;20156;-69
2021/07/22 01:19:08;;;;;;;2.20;1.98;;;24.20;57.80;;;;;;6236542;28;20029;-69
2021/07/22 01:22:08;;;;;;;2.22;2.00;;;24.20;57.90;;;;;;6241534;28;20021;-69
2021/07/22 01:25:09;;;;;;;2.55;2.00;;;24.20;57.80;;;;;;6241542;28;20033;-69
2021/07/22 01:28:10;;;;;;;1.90;1.70;;;24.20;57.80;;;;;;6241644;28;20037;-69
2021/07/22 01:31:10;;;;;;;2.58;1.90;;;24.20;57.90;;;;;;6241588;28;20036;-69
2021/07/22 01:34:11;;;;;;;2.20;1.85;;;24.20;57.80;;;;;;6241112;28;20431;-69
2021/07/22 01:37:11;;;;;;;2.45;2.20;;;24.20;57.90;;;;;;6241078;28;20100;-69
2021/07/22 01:40:13;;;;;;;2.10;1.90;;;24.20;57.80;;;;;;6241369;28;20457;-69
2021/07/22 01:43:14;;;;;;;2.72;2.05;;;24.20;57.80;;;;;;6241220;28;20041;-69
2021/07/22 01:46:19;;;;;;;2.40;2.20;;;24.20;57.80;;;;;;6240806;28;20029;-69
2021/07/22 01:49:19;;;;;;;2.40;2.10;;;24.20;57.80;;;;;;6240761;28;20452;-69
2021/07/22 01:52:20;;;;;;;2.05;1.85;;;24.20;57.90;;;;;;6241205;28;20033;-69
2021/07/22 01:55:20;;;;;;;2.83;2.00;;;24.20;57.80;;;;;;6240708;28;20388;-69
2021/07/22 01:58:21;;;;;;;1.67;1.58;;;24.20;57.80;;;;;;6239270;28;20030;-69
2021/07/22 02:01:21;;;;;;;2.60;1.90;;;24.20;57.90;;;;;;6241193;28;20033;-69
2021/07/22 02:04:22;;;;;;;2.47;2.00;;;24.20;57.90;;;;;;6237154;28;20087;-69
2021/07/22 02:07:22;;;;;;;2.15;1.90;;;24.20;57.90;;;;;;6216345;28;20481;-69
2021/07/22 02:10:23;;;;;;;2.72;2.15;;;24.20;57.90;;;;;;6225877;28;20581;-69
2021/07/22 02:13:23;;;;;;;2.53;1.77;;;24.20;57.90;;;;;;6239777;28;20033;-69
2021/07/22 02:16:24;;;;;;;2.40;1.98;;;24.20;57.90;;;;;;6236762;28;20029;-69
2021/07/22 02:19:24;;;;;;;1.92;1.73;;;24.20;57.90;;;;;;6230510;28;20452;-69
2021/07/22 02:22:25;;;;;;;2.42;2.00;;;24.20;58.00;;;;;;6244296;28;20025;-69
2021/07/22 02:25:25;;;;;;;2.72;2.05;;;24.20;58.00;;;;;;6245584;28;20060;-69
2021/07/22 02:28:26;;;;;;;2.53;2.10;;;24.20;58.00;;;;;;6245157;28;20063;-69
2021/07/22 02:31:27;;;;;;;1.85;1.67;;;24.20;58.00;;;;;;6244985;28;20079;-69
2021/07/22 02:34:27;;;;;;;2.78;2.10;;;24.20;58.00;;;;;;6245086;28;20029;-69
2021/07/22 02:37:28;;;;;;;2.15;1.92;;;24.20;58.00;;;;;;6245091;28;20041;-69
2021/07/22 02:40:29;;;;;;;2.63;1.92;;;24.20;58.00;;;;;;6245228;28;20064;-69
2021/07/22 02:43:29;;;;;;;2.20;2.00;;;24.20;58.00;;;;;;6245288;28;20021;-69
2021/07/22 02:46:30;;;;;;;2.00;1.80;;;24.20;58.00;;;;;;6245182;28;20030;-69
2021/07/22 02:49:30;;;;;;;2.10;1.90;;;24.20;58.00;;;;;;6245080;28;20018;-69
2021/07/22 02:52:31;;;;;;;2.03;1.65;;;24.20;58.00;;;;;;6244601;28;20033;-69
2021/07/22 02:55:31;;;;;;;2.65;2.05;;;24.20;58.00;;;;;;6245475;28;20435;-69
2021/07/22 02:58:32;;;;;;;2.10;1.67;;;24.20;58.00;;;;;;6244441;28;20025;-69
2021/07/22 03:01:32;;;;;;;2.05;1.75;;;24.20;58.00;;;;;;6244338;28;20318;-69
2021/07/22 03:04:33;;;;;;;2.17;1.88;;;24.20;58.00;;;;;;6244659;28;20033;-69
2021/07/22 03:07:34;;;;;;;1.90;1.70;;;24.20;58.00;;;;;;6244431;28;20128;-69
2021/07/22 03:10:35;;;;;;;1.65;1.55;;;24.20;58.00;;;;;;6244592;28;20045;-71
2021/07/22 03:13:36;;;;;;;1.95;1.67;;;24.20;58.00;;;;;;6236105;28;20052;-69
2021/07/22 03:16:37;;;;;;;2.45;1.80;;;24.20;58.00;;;;;;6227275;28;20026;-69
2021/07/22 03:19:37;;;;;;;2.05;1.77;;;24.20;58.10;;;;;;6227449;28;20037;-69
2021/07/22 03:22:38;;;;;;;1.92;1.73;;;24.20;58.10;;;;;;6233450;28;20021;-69
2021/07/22 03:25:38;;;;;;;2.08;1.63;;;24.20;58.10;;;;;;6244315;28;20128;-69
2021/07/22 03:28:39;;;;;;;2.35;1.90;;;24.20;58.10;;;;;;6243579;28;20042;-69
2021/07/22 03:31:39;;;;;;;1.80;1.55;;;24.20;58.10;;;;;;6243499;28;20476;-69
2021/07/22 03:34:40;;;;;;;2.20;1.90;;;24.20;58.10;;;;;;6242658;28;20073;-69
2021/07/22 03:37:40;;;;;;;2.17;1.70;;;24.20;58.10;;;;;;6232399;28;20034;-69
2021/07/22 03:40:41;;;;;;;2.00;1.67;;;24.20;58.10;;;;;;6243572;28;20362;-69
2021/07/22 03:43:42;;;;;;;1.42;1.33;;;24.20;58.10;;;;;;6243398;28;20038;-69
2021/07/22 03:46:43;;;;;;;1.83;1.60;;;24.20;58.10;;;;;;6243419;28;20369;-69
2021/07/22 03:49:43;;;;;;;1.75;1.65;;;24.20;58.10;;;;;;6243687;28;20030;-69
2021/07/22 03:52:44;;;;;;;2.00;1.80;;;24.20;58.10;;;;;;6243095;28;20083;-69
2021/07/22 03:55:44;;;;;;;1.60;1.50;;;24.20;58.10;;;;;;6243494;28;20029;-69
2021/07/22 03:58:45;;;;;;;1.80;1.70;;;24.20;58.10;;;;;;6242742;28;20156;-69
2021/07/22 04:01:45;;;;;;;1.92;1.73;;;24.20;58.10;;;;;;6242974;28;20060;-69
2021/07/22 04:04:46;;;;;;;2.00;1.80;;;24.20;58.10;;;;;;6243113;28;20025;-69
2021/07/22 04:07:46;;;;;;;1.92;1.58;;;24.20;58.10;;;;;;6243368;28;20031;-69
2021/07/22 04:10:47;;;;;;;1.50;1.40;;;24.20;58.90;;;;;;6242886;28;20037;-69
2021/07/22 04:13:47;;;;;;;1.70;1.60;;;24.20;58.10;;;;;;6233054;28;20018;-69
2021/07/22 04:16:48;;;;;;;1.70;1.55;;;24.20;58.20;;;;;;6219146;28;20034;-69
2021/07/22 04:19:48;;;;;;;2.30;1.67;;;24.20;58.10;;;;;;6212343;28;20577;-69
2021/07/22 04:22:50;;;;;;;2.03;1.83;;;24.20;58.20;;;;;;6225741;28;20021;-69
2021/07/22 04:25:51;;;;;;;1.67;1.50;;;24.20;58.10;;;;;;6243193;28;20516;-69
2021/07/22 04:28:52;;;;;;;1.80;1.50;;;24.20;58.20;;;;;;6242530;28;20053;-70
2021/07/22 04:31:53;;;;;;;2.10;1.75;;;24.20;58.10;;;;;;6242529;28;20074;-70
2021/07/22 04:34:53;;;;;;;1.90;1.60;;;24.20;58.10;;;;;;6242072;28;20034;-69
2021/07/22 04:37:54;;;;;;;2.38;1.83;;;24.20;58.20;;;;;;6242439;28;20025;-69
2021/07/22 04:40:54;;;;;;;2.25;2.03;;;24.20;58.20;;;;;;6242208;28;20416;-69
2021/07/22 04:43:55;;;;;;;1.75;1.33;;;24.20;58.20;;;;;;6241897;28;20017;-69
2021/07/22 04:46:55;;;;;;;2.60;1.60;;;24.20;58.20;;;;;;6242471;28;20480;-69
2021/07/22 04:49:56;;;;;;;2.20;1.65;;;24.20;58.20;;;;;;6241986;28;20033;-69
2021/07/22 04:52:58;;;;;;;1.77;1.55;;;24.20;58.20;;;;;;6241860;28;20018;-69
2021/07/22 04:56:08;;;;;;;2.00;1.80;;;24.20;58.20;;;;;;6287075;28;20395;-67
2021/07/22 04:59:09;;;;;;;1.60;1.50;;;24.20;58.20;;;;;;6300439;28;20107;-67
2021/07/22 05:02:09;;;;;;;1.77;1.63;;;24.20;58.20;;;;;;6289521;28;20549;-69
2021/07/22 05:05:10;;;;;;;1.88;1.63;;;24.20;58.20;;;;;;6283404;28;20127;-68
2021/07/22 05:08:10;;;;;;;1.52;1.42;;;24.20;58.20;;;;;;6295805;28;20024;-69
2021/07/22 05:11:11;;;;;;;1.63;1.52;;;24.20;58.20;;;;;;6312465;28;20027;-69
2021/07/22 05:14:11;;;;;;;1.70;1.60;;;24.20;58.20;;;;;;6307026;28;20051;-69
2021/07/22 05:17:12;;;;;;;1.50;1.40;;;24.20;58.20;;;;;;6310845;28;20082;-69
2021/07/22 05:20:12;;;;;;;1.33;1.23;;;24.20;58.20;;;;;;6307075;28;20101;-69
2021/07/22 05:23:13;;;;;;;1.98;1.70;;;24.20;58.20;;;;;;6311431;28;20391;-69
2021/07/22 05:26:13;;;;;;;2.03;1.27;;;24.20;58.20;;;;;;6312036;28;20013;-69
2021/07/22 05:29:14;;;;;;;1.75;1.50;;;24.20;58.20;;;;;;6311747;28;20395;-68
2021/07/22 05:32:15;;;;;;;1.90;1.42;;;24.20;58.20;;;;;;6311381;28;20028;-69
2021/07/22 05:35:15;;;;;;;1.50;1.33;;;24.20;58.30;;;;;;6311466;28;20077;-69
2021/07/22 05:38:16;;;;;;;1.85;1.63;;;24.20;58.30;;;;;;6310949;28;20048;-69
2021/07/22 05:41:16;;;;;;;1.40;1.23;;;24.20;58.30;;;;;;6311628;28;20028;-69
2021/07/22 05:44:17;;;;;;;1.50;1.40;;;24.20;58.30;;;;;;6311552;28;20475;-69
2021/07/22 05:47:17;;;;;;;1.85;1.67;;;24.20;58.30;;;;;;6311198;28;20107;-69
2021/07/22 05:50:18;;;;;;;1.35;1.25;;;24.20;58.30;;;;;;6311115;28;20073;-69
2021/07/22 05:53:19;;;;;;;1.30;1.20;;;24.20;58.30;;;;;;6310825;28;20064;-69
2021/07/22 05:56:19;;;;;;;1.80;1.67;;;24.20;58.30;;;;;;6311468;28;20054;-69
2021/07/22 05:59:20;;;;;;;2.08;1.40;;;24.20;58.30;;;;;;6304523;28;20045;-68
2021/07/22 06:02:20;;;;;;;1.60;1.50;;;24.20;58.30;;;;;;6273028;28;20025;-69
2021/07/22 06:05:21;;;;;;;1.67;1.55;;;24.10;58.20;;;;;;6288998;28;20032;-69
2021/07/22 06:08:21;;;;;;;1.73;1.30;;;24.20;58.30;;;;;;6288706;28;20075;-69
2021/07/22 06:11:22;;;;;;;1.42;1.17;;;24.20;58.40;;;;;;6288763;28;20025;-69
2021/07/22 06:14:23;;;;;;;1.60;1.50;;;24.20;58.30;;;;;;6281521;28;20480;-69
2021/07/22 06:17:23;;;;;;;1.50;1.40;;;24.20;58.40;;;;;;6296582;28;20028;-69
2021/07/22 06:20:24;;;;;;;1.40;1.30;;;24.20;58.30;;;;;;6280285;28;20043;-69
2021/07/22 06:23:25;;;;;;;1.60;1.50;;;24.20;58.40;;;;;;6296590;28;20023;-69
2021/07/22 06:26:25;;;;;;;1.70;1.50;;;24.20;58.30;;;;;;6296721;28;20387;-69
2021/07/22 06:29:26;;;;;;;1.50;1.30;;;24.20;58.30;;;;;;6296370;28;20029;-68
2021/07/22 06:32:27;;;;;;;1.73;1.40;;;24.20;58.30;;;;;;6296423;28;20025;-69
2021/07/22 06:35:27;;;;;;;1.30;1.20;;;24.20;58.40;;;;;;6289910;28;20029;-69
2021/07/22 06:38:31;;;;;;;1.55;1.45;;;24.20;58.30;;;;;;6271463;28;20048;-69
2021/07/22 06:41:32;;;;;;;1.70;1.50;;;24.20;58.30;;;;;;6285222;28;20021;-69
2021/07/22 06:44:32;;;;;;;1.73;1.50;;;24.20;59.00;;;;;;6297141;28;20055;-68
2021/07/22 06:47:37;;;;;;;1.75;1.33;;;24.20;58.30;;;;;;6296251;28;20031;-69
2021/07/22 06:50:38;;;;;;;;;;;24.20;58.40;;;;;;6296707;28;20103;-69
2021/07/22 06:53:38;;;;;;;1.50;1.40;;;24.20;58.40;;;;;;6295529;28;20287;-69
2021/07/22 06:56:39;;;;;;;1.52;1.30;;;24.20;58.40;;;;;;6296454;28;20021;-69
2021/07/22 06:59:39;;;;;;;1.70;1.40;;;24.20;58.40;;;;;;6295983;28;20029;-69
2021/07/22 07:02:40;;;;;;;2.10;1.50;;;24.20;58.40;;;;;;6296089;28;20543;-69
2021/07/22 07:05:41;;;;;;;1.88;1.50;;;24.20;58.40;;;;;;6296931;28;20100;-69
2021/07/22 07:08:41;;;;;;;1.40;1.30;;;24.20;58.40;;;;;;6296300;28;20029;-68
2021/07/22 07:11:42;;;;;;;1.98;1.70;;;24.20;58.40;;;;;;6296456;28;20068;-68
2021/07/22 07:14:42;;;;;;;1.50;1.30;;;24.20;58.40;;;;;;6262018;28;20072;-68
2021/07/22 07:17:43;;;;;;;1.80;1.40;;;24.20;58.40;;;;;;6277118;28;20024;-68
2021/07/22 07:20:43;;;;;;;1.40;1.30;;;24.20;58.40;;;;;;6271373;28;20021;-69
2021/07/22 07:23:44;;;;;;;1.33;1.23;;;24.20;58.40;;;;;;6295296;28;20016;-69
2021/07/22 07:26:44;;;;;;;1.67;1.58;;;24.20;58.40;;;;;;6295519;28;20036;-69
2021/07/22 07:29:45;;;;;;;1.65;1.50;;;24.20;58.40;;;;;;6295954;28;20055;-69
2021/07/22 07:32:47;;;;;;;1.63;1.45;;;24.20;58.50;;;;;;6295821;28;20052;-68
2021/07/22 07:35:47;;;;;;;1.83;1.63;;;24.20;58.40;;;;;;6295480;28;20032;-69
2021/07/22 07:38:48;;;;;;;1.98;1.30;;;24.20;58.40;;;;;;6294852;28;20029;-69
2021/07/22 07:41:48;;;;;;;1.60;1.50;;;24.20;58.40;;;;;;6295111;28;20075;-69
2021/07/22 07:44:49;;;;;;;1.40;1.30;;;24.20;58.50;;;;;;6282932;28;20028;-69
2021/07/22 07:47:49;;;;;;;1.70;1.10;;;24.20;58.40;;;;;;6267091;28;20033;-69
2021/07/22 07:50:50;;;;;;;1.50;1.40;;;24.20;58.50;;;;;;6268314;28;20029;-69
2021/07/22 07:53:51;;;;;;;1.40;1.27;;;24.20;58.40;;;;;;6268653;28;20053;-69
2021/07/22 07:56:51;;;;;;;1.65;1.30;;;24.20;58.40;;;;;;6276988;28;20025;-69
2021/07/22 07:59:52;;;;;;;1.38;1.27;;;24.20;58.50;;;;;;6291906;28;20043;-69
2021/07/22 08:02:58;;;;;;;1.65;1.27;;;24.20;58.50;;;;;;6283170;28;20035;-69
2021/07/22 08:05:58;;;;;;;1.67;1.38;;;24.20;58.50;;;;;;6268705;28;20480;-68
2021/07/22 08:08:59;;;;;;;3.55;1.33;;;24.20;58.40;;;;;;6290514;28;20040;-69
2021/07/22 08:11:59;;;;;;;1.90;1.38;;;24.20;58.40;;;;;;6293130;28;20570;-68
2021/07/22 08:15:00;;;;;;;1.58;1.30;;;24.20;58.40;;;;;;6254402;28;20115;-69
2021/07/22 08:18:00;;;;;;;1.85;1.30;;;24.20;58.50;;;;;;6267089;28;20487;-68
2021/07/22 08:21:01;;;;;;;1.50;1.20;;;24.20;58.50;;;;;;6269120;28;20068;-69
2021/07/22 08:24:01;;;;;;;2.05;1.38;;;24.20;58.50;;;;;;6288178;28;20024;-69
2021/07/22 08:27:02;;;;;;;1.40;1.30;;;24.20;58.50;;;;;;6289279;28;20024;-69
2021/07/22 08:30:04;;;;;;;4.47;1.65;;;24.20;58.50;;;;;;6291264;28;20032;-68
2021/07/22 08:33:05;;;;;;;6.72;2.55;;;24.20;58.60;;;;;;6293615;28;20133;-69
2021/07/22 08:36:05;;;;;;;10.73;4.55;;;24.20;58.10;;;;;;6278657;28;20029;-69
2021/07/22 08:39:06;;;;;;;8.35;4.20;;;24.20;58.20;;;;;;6288132;28;20044;-68
2021/07/22 08:42:08;;;;;;;10.65;5.03;;;24.20;57.50;;;;;;6248932;28;20484;-69
2021/07/22 08:45:09;;;;;;;9.98;5.43;;;24.10;57.40;;;;;;6293249;28;20028;-68
2021/07/22 08:48:11;;;;;;;12.60;5.53;;;24.10;57.50;;;;;;6292769;28;20419;-69
2021/07/22 08:51:12;;;;;;;12.48;6.32;;;24.10;57.50;;;;;;6289519;28;20037;-69
2021/07/22 08:54:14;;;;;;;10.68;6.45;;;24.10;57.30;;;;;;6284381;28;20507;-69
2021/07/22 08:57:17;;;;;;;12.70;5.88;;;24.10;57.30;;;;;;6270081;28;20029;-68
2021/07/22 09:00:18;;;;;;;10.57;5.75;;;24.10;57.30;;;;;;6292893;28;20060;-69
2021/07/22 09:03:19;;;;;;;9.50;6.03;;;24.10;57.00;;;;;;6292090;28;20089;-69
2021/07/22 09:06:20;;;;;;;9.15;5.65;;;24.10;57.20;;;;;;6292898;28;20028;-68
2021/07/22 09:09:21;;;;;;;9.27;5.93;;;24.10;56.80;;;;;;6290281;28;20032;-69
2021/07/22 09:12:41;;;;;;;7.72;5.43;;;24.00;56.90;;;;;;6293266;28;20376;-69
2021/07/22 09:15:51;;;;;;;7.43;5.57;;;24.00;56.90;;;;;;6283846;28;20161;-69
2021/07/22 09:18:52;;;;;;;8.63;6.05;;;24.10;56.90;;;;;;6292612;28;20020;-69
2021/07/22 09:21:52;;;;;;;14.70;7.00;;;24.10;56.70;;;;;;6292495;28;20104;-69
2021/07/22 09:24:53;;;;;;;11.02;6.13;;;24.00;56.80;;;;;;6292147;28;20024;-69
2021/07/22 09:27:59;;;;;;;11.35;6.40;;;24.00;56.70;;;;;;6292353;28;20122;-69
2021/07/22 09:31:03;;;;;;;12.77;5.93;;;24.10;56.80;;;;;;6292475;28;20032;-69
2021/07/22 09:34:23;;;;;;;10.18;6.13;;;24.00;56.70;;;;;;6292306;28;20119;-69
2021/07/22 09:37:26;;;;;;;11.93;6.43;;;24.00;57.30;;;;;;6283807;28;20042;-69
2021/07/22 09:40:29;;;;;;;9.35;6.28;;;24.00;56.90;;;;;;6269328;28;20029;-69
2021/07/22 09:43:40;;;;;;;12.32;6.30;;;24.00;56.70;;;;;;6276498;28;20448;-69
2021/07/22 09:46:41;;;;;;;11.00;6.22;;;24.00;56.70;;;;;;6282959;28;20369;-69
2021/07/22 09:49:42;;;;;;;11.25;6.72;;;24.00;56.60;;;;;;6280029;28;20021;-69
2021/07/22 09:52:45;;;;;;;11.27;7.00;;;24.00;56.70;;;;;;6294336;28;20479;-69
2021/07/22 09:55:45;;;;;;;12.00;7.10;;;24.00;56.50;;;;;;6296028;28;20135;-69
2021/07/22 09:58:46;;;;;;;11.35;6.70;;;24.00;56.80;;;;;;6284366;28;20058;-69
2021/07/22 10:01:50;;;;;;;9.23;6.15;;;24.00;56.80;;;;;;6294024;28;20078;-69
2021/07/22 10:04:59;;;;;;;12.77;7.45;;;24.00;56.40;;;;;;6295967;28;20029;-69
2021/07/22 10:07:59;;;;;;;10.23;6.63;;;24.00;56.60;;;;;;6296541;28;20051;-68
2021/07/22 10:11:04;;;;;;;12.57;7.45;;;24.00;56.90;;;;;;6296666;28;20029;-69
2021/07/22 10:14:05;;;;;;;7.82;5.28;;;24.00;56.90;;;;;;6281233;28;20036;-69
2021/07/22 10:17:08;;;;;;;8.15;5.50;;;24.00;57.20;;;;;;6295436;28;20052;-69
2021/07/22 10:20:10;;;;;;;8.80;6.43;;;24.00;57.10;;;;;;6284942;28;20032;-69
2021/07/22 10:23:11;;;;;;;10.40;6.80;;;24.00;57.00;;;;;;6295437;28;20498;-69
2021/07/22 10:26:11;;;;;;;13.02;8.55;;;24.00;57.20;;;;;;6295263;28;20063;-69
2021/07/22 10:29:12;;;;;;;14.32;9.55;;;24.00;57.00;;;;;;6295772;28;20364;-69
2021/07/22 10:32:21;;;;;;;15.60;8.38;;;24.00;56.90;;;;;;6295430;28;20028;-69
2021/07/22 10:35:25;;;;;;;18.13;9.00;;;24.00;57.10;;;;;;6295401;28;20504;-69
2021/07/22 10:38:44;;;;;;;14.85;9.60;;;24.00;57.00;;;;;;6282810;28;20032;-69
2021/07/22 10:41:44;;;;;;;12.40;7.97;;;24.00;57.00;;;;;;6282284;28;20025;-69
2021/07/22 10:44:45;;;;;;;11.43;6.72;;;24.00;57.00;;;;;;6269835;28;20380;-68
2021/07/22 10:48:08;;;;;;;12.45;8.30;;;24.00;56.80;;;;;;6269955;28;20067;-68
2021/07/22 10:51:10;;;;;;;12.57;7.22;;;24.00;56.80;;;;;;6287220;28;20056;-69
2021/07/22 10:54:49;;;;;;;13.20;7.72;;;24.00;56.60;;;;;;6269239;28;20045;-69
2021/07/22 10:57:49;;;;;;;15.73;7.60;;;24.00;56.60;;;;;;6291065;28;20605;-69
2021/07/22 11:00:50;;;;;;;12.10;7.90;;;24.00;56.70;;;;;;6288953;28;20036;-69
2021/07/22 11:03:51;;;;;;;11.88;7.35;;;24.00;56.80;;;;;;6285934;28;20388;-69
2021/07/22 11:07:02;;;;;;;10.57;7.07;;;24.00;56.50;;;;;;6289507;28;20025;-69
2021/07/22 11:10:03;;;;;;;12.25;7.72;;;24.00;56.70;;;;;;6284737;28;20017;-69
2021/07/22 11:13:04;;;;;;;11.48;7.47;;;24.00;56.80;;;;;;6287042;28;20026;-69
2021/07/22 11:16:29;;;;;;;14.25;7.57;;;24.00;56.70;;;;;;6262708;28;20395;-69
2021/07/22 11:19:29;;;;;;;15.35;8.27;;;24.00;56.50;;;;;;6277765;28;20021;-69
2021/07/22 11:22:37;;;;;;;10.32;7.47;;;24.00;56.50;;;;;;6286323;28;20028;-69
2021/07/22 11:25:46;;;;;;;13.48;7.35;;;24.00;56.70;;;;;;6293751;28;20035;-69
2021/07/22 11:28:49;;;;;;;9.88;7.32;;;24.00;57.10;;;;;;6294107;28;20027;-69
2021/07/22 11:32:02;;;;;;;12.07;8.15;;;24.00;57.20;;;;;;6293552;28;20020;-69
2021/07/22 11:35:04;;;;;;;11.98;7.63;;;24.00;57.10;;;;;;6284445;28;20071;-69
2021/07/22 11:38:04;;;;;;;13.15;7.00;;;24.00;57.20;;;;;;6282718;28;20056;-69
2021/07/22 11:41:12;;;;;;;11.40;7.13;;;24.00;56.70;;;;;;6281254;28;20040;-69
2021/07/22 11:44:15;;;;;;;12.05;7.38;;;24.00;57.20;;;;;;6293414;28;20024;-69
2021/07/22 11:47:16;;;;;;;9.65;7.38;;;24.00;56.80;;;;;;6291510;28;20033;-69
2021/07/22 11:50:16;;;;;;;11.75;7.18;;;24.00;56.80;;;;;;6259221;28;20053;-69
2021/07/22 11:53:20;;;;;;;10.15;7.10;;;24.00;56.50;;;;;;6266431;28;20029;-69
2021/07/22 11:56:20;;;;;;;12.60;7.47;;;24.00;56.40;;;;;;6259033;28;20033;-68
2021/07/22 11:59:32;;;;;;;12.10;7.30;;;24.00;56.20;;;;;;6291763;28;20399;-69
2021/07/22 12:02:32;;;;;;;14.55;7.43;;;24.00;56.70;;;;;;6292607;28;20112;-69
2021/07/22 12:05:33;;;;;;;9.75;7.30;;;24.10;56.80;;;;;;6292498;28;20029;-69
2021/07/22 12:08:33;;;;;;;7.78;6.18;;;24.10;56.80;;;;;;6291351;28;20029;-69
2021/07/22 12:11:49;;;;;;;9.55;7.22;;;24.20;56.90;;;;;;6244283;28;20392;-68
2021/07/22 12:14:50;;;;;;;9.52;6.22;;;24.20;57.10;;;;;;6254522;28;20033;-69
2021/07/22 12:17:50;;;;;;;8.15;6.28;;;24.20;57.20;;;;;;6254288;28;20440;-69
2021/07/22 12:20:51;;;;;;;9.25;6.40;;;24.20;57.30;;;;;;6269220;28;20025;-69
2021/07/22 12:23:52;;;;;;;10.40;6.72;;;24.10;57.30;;;;;;6282873;28;20467;-69
2021/07/22 12:26:52;;;;;;;10.27;6.35;;;24.10;57.30;;;;;;6294290;28;20085;-69
2021/07/22 12:29:53;;;;;;;11.00;6.03;;;24.10;57.30;;;;;;6293389;28;20491;-69
2021/07/22 12:32:55;;;;;;;8.00;5.65;;;24.20;57.40;;;;;;6293247;28;20024;-69
2021/07/22 12:35:56;;;;;;;8.48;5.97;;;24.10;57.30;;;;;;6293750;28;20445;-69
2021/07/22 12:39:10;;;;;;;9.88;5.45;;;24.10;57.40;;;;;;6294034;28;20070;-69
2021/07/22 12:42:13;;;;;;;7.95;5.32;;;24.10;57.40;;;;;;6293380;28;20177;-69
2021/07/22 12:45:14;;;;;;;7.88;5.60;;;24.10;57.50;;;;;;6294404;28;20028;-69
2021/07/22 12:48:15;;;;;;;7.82;5.78;;;24.10;57.50;;;;;;6293510;28;20024;-69
2021/07/22 12:51:22;;;;;;;6.43;5.15;;;24.10;57.50;;;;;;6293263;28;20095;-69
2021/07/22 12:54:22;;;;;;;7.50;5.90;;;24.10;57.50;;;;;;6293006;28;20063;-69
2021/07/22 12:57:39;;;;;;;6.40;5.30;;;24.10;57.50;;;;;;6294142;28;20021;-69
2021/07/22 13:00:41;;;;;;;7.45;5.57;;;24.10;57.60;;;;;;6293353;28;20029;-69
2021/07/22 13:03:44;;;;;;;6.50;5.15;;;24.10;57.60;;;;;;6293218;28;20013;-69
2021/07/22 13:06:44;;;;;;;6.40;4.95;;;24.10;57.60;;;;;;6293517;28;20391;-69
2021/07/22 13:09:45;;;;;;;6.20;5.13;;;24.20;57.70;;;;;;6293334;28;20036;-69
2021/07/22 13:12:45;;;;;;;6.80;4.97;;;24.10;57.70;;;;;;6290939;28;20429;-69
2021/07/22 13:15:46;;;;;;;6.25;4.95;;;24.10;57.70;;;;;;6285174;28;20047;-69
2021/07/22 13:18:47;;;;;;;7.40;5.10;;;24.10;57.70;;;;;;6290680;28;20063;-68
2021/07/22 13:21:47;;;;;;;6.63;5.18;;;24.10;57.80;;;;;;6297909;28;20021;-69
2021/07/22 13:24:50;;;;;;;6.47;4.82;;;24.10;57.70;;;;;;6298187;28;20040;-69
2021/07/22 13:27:51;;;;;;;8.05;4.40;;;24.10;57.80;;;;;;6297857;28;20029;-69
2021/07/22 13:30:52;;;;;;;5.95;4.57;;;24.10;57.80;;;;;;6297873;28;20121;-69
2021/07/22 13:33:52;;;;;;;6.78;4.85;;;24.10;57.80;;;;;;6297566;28;20064;-69
2021/07/22 13:36:57;;;;;;;6.43;4.97;;;24.10;57.80;;;;;;6298310;28;20028;-69
2021/07/22 13:39:58;;;;;;;6.70;4.90;;;24.10;57.80;;;;;;6297401;28;20031;-69
2021/07/22 13:43:01;;;;;;;5.65;4.70;;;24.10;57.80;;;;;;6297591;28;20024;-69
2021/07/22 13:46:02;;;;;;;6.10;4.80;;;24.20;57.90;;;;;;6298005;28;20678;-69
2021/07/22 13:49:02;;;;;;;5.70;4.07;;;24.10;57.80;;;;;;6297053;28;20110;-69
2021/07/22 13:52:04;;;;;;;6.75;4.80;;;24.20;57.90;;;;;;6297520;28;20395;-69
2021/07/22 13:55:06;;;;;;;6.63;4.38;;;24.10;57.80;;;;;;6297006;28;20048;-69
2021/07/22 13:58:06;;;;;;;5.57;4.25;;;24.10;57.90;;;;;;6297490;28;20028;-69
2021/07/22 14:01:07;;;;;;;6.50;4.82;;;24.10;58.60;;;;;;6296734;28;20040;-69
2021/07/22 14:04:07;;;;;;;6.88;4.28;;;24.10;58.30;;;;;;6296839;28;20043;-69
2021/07/22 14:07:08;;;;;;;4.72;4.10;;;24.20;58.00;;;;;;6297228;28;20021;-69
2021/07/22 14:10:09;;;;;;;5.57;4.53;;;24.10;57.90;;;;;;6297225;28;20082;-69
2021/07/22 14:13:09;;;;;;;5.13;4.00;;;24.10;57.90;;;;;;6287851;28;20025;-69
2021/07/22 14:16:09;;;;;;;6.22;4.13;;;24.10;57.90;;;;;;6275591;28;20044;-69
2021/07/22 14:19:10;;;;;;;5.28;4.18;;;24.10;57.90;;;;;;6283287;28;20029;-69
2021/07/22 14:22:12;;;;;;;5.88;4.03;;;24.10;57.90;;;;;;6292440;28;20025;-69
2021/07/22 14:25:14;;;;;;;4.95;3.90;;;24.10;57.90;;;;;;6296597;28;20051;-69
2021/07/22 14:28:14;;;;;;;5.43;4.57;;;24.10;57.90;;;;;;6296437;28;20360;-69
2021/07/22 14:31:15;;;;;;;5.18;4.22;;;24.10;58.00;;;;;;6296383;28;20067;-69
2021/07/22 14:34:17;;;;;;;4.65;3.70;;;24.10;57.90;;;;;;6296583;28;20052;-68
2021/07/22 14:37:17;;;;;;;4.95;3.97;;;24.10;57.90;;;;;;6296086;28;20718;-69
2021/07/22 14:40:18;;;;;;;5.75;3.90;;;24.10;58.00;;;;;;6295939;28;20036;-69
2021/07/22 14:43:19;;;;;;;5.15;4.00;;;24.10;58.00;;;;;;6295900;28;20189;-69
2021/07/22 14:46:19;;;;;;;6.28;3.97;;;24.10;58.00;;;;;;6295975;28;20056;-68
2021/07/22 14:49:20;;;;;;;4.80;3.75;;;24.20;58.00;;;;;;6296184;28;20107;-69
2021/07/22 14:52:20;;;;;;;4.25;3.70;;;24.20;58.10;;;;;;6295560;28;20325;-69
2021/07/22 14:55:21;;;;;;;5.10;3.33;;;24.10;58.00;;;;;;6295307;28;20096;-68
2021/07/22 14:58:21;;;;;;;4.43;3.65;;;24.10;58.00;;;;;;6296648;28;20024;-69
2021/07/22 15:01:22;;;;;;;4.30;3.42;;;24.10;58.10;;;;;;6295345;28;20039;-69
2021/07/22 15:04:22;;;;;;;5.82;4.05;;;24.10;58.10;;;;;;6295918;28;20047;-69
2021/07/22 15:07:23;;;;;;;5.03;3.65;;;24.10;58.10;;;;;;6295413;28;20391;-68
2021/07/22 15:10:23;;;;;;;4.72;3.65;;;24.10;58.10;;;;;;6295928;28;20032;-69
2021/07/22 15:13:24;;;;;;;4.70;3.72;;;24.10;58.10;;;;;;6282532;28;20045;-69
2021/07/22 15:16:24;;;;;;;4.32;3.30;;;24.10;58.10;;;;;;6258072;28;20040;-69
2021/07/22 15:19:25;;;;;;;4.50;3.55;;;24.10;58.10;;;;;;6279634;28;20098;-69
2021/07/22 15:22:30;;;;;;;4.25;3.83;;;24.10;58.10;;;;;;6283973;28;20024;-69
2021/07/22 15:25:30;;;;;;;;;;;24.10;58.10;;;;;;6295910;28;20398;-69
2021/07/22 15:28:31;;;;;;;5.03;3.60;;;24.10;58.10;;;;;;6294744;28;19940;-69
2021/07/22 15:31:31;;;;;;;4.22;3.17;;;24.10;58.10;;;;;;6294961;28;20052;-69
2021/07/22 15:34:32;;;;;;;4.10;3.40;;;24.10;58.20;;;;;;6294702;28;20434;-69
2021/07/22 15:37:33;;;;;;;3.33;2.85;;;24.10;58.20;;;;;;6294289;28;20133;-69
2021/07/22 15:40:34;;;;;;;4.82;3.72;;;24.10;58.20;;;;;;6293944;28;20483;-69
2021/07/22 15:43:34;;;;;;;4.22;3.20;;;24.10;58.20;;;;;;6294568;28;20024;-69